Yuma MCAS/Yuma International Airport
KNYL : now visible

Airfield :











YOU CAN JOIN US ON...

 
LOGIN :

Register | Disclaimer

   EN    FR    IT 

 









Legend :    VFR   Marginal VFR   IFR   Intensive IFR   Very Intensive IFR
Visi :
Ceiling :
>= 8 km
>= 3000ft
5 to 8 km
1000 to 3000 ft
1500m to 5 km
500 to 1000 ft
800 to 1500m
200 to 500 ft
< 800m
< 200 ft
Symbols :   Thunderstorms  Fog  Heavy snow  Heavy precipitations  Wind > 20 kt






- Airport Elevation : 213 ft
- IATA code : YUM


KNYL - Yuma MCAS/Yuma International

CURRENT METAR :
  • 151257Z AUTO 31006KT 10SM CLR 12/05 A2983 RMK AO2 SLP100 T01170050 $

EXPIRED METARs :
  • 151157Z AUTO 29012KT 10SM CLR 13/05 A2982 RMK AO2 SLP094 T01330050 10167 20133 50006 $
  • 151057Z AUTO 29010KT 10SM CLR 14/05 A2982 RMK AO2 SLP097 T01390050 $

TAF TAF KNYL
Valid from the 15 at 09:00 until the 16 at 09:00 UTC


1509/1609 27009KT 9999 FEW150 SCT250 QNH2975INS
BECMG 1511/1513 35009KT 9999 FEW250 QNH2983INS
TEMPO 1521/1603 VRB05KT AUTOMATED SENSOR METWATCH 1509 TIL 1614 T10/1413Z T19/1521Z



MET'MAP, your aeronautical weather chart ! - Copyright ORBIFLY December 2007 - Disclaimer

ORBIFLY MET'MAP TEAM :

Programming & Development : Alexandra Zaïnal
Concept & original design : Baudouin d'Aumeries
Assistance for programming : Marc-Olivier Méhu
Technical & hardware support : Manuel Goepfert

Contact : metmap@orbifly.com




SOURCES & CREDITS :

   NOAA       Earth
Advisory